| time (UTC) | temp F | wind direction | speed MPH | gust MPH | rain 1hr in | rain 24hr in | rain mn in | humidity % | barometer mb |
| 20260507171931 | 57 | 180 | 6.0 | 10.0 | 0.00 | 0.50 | 0.43 | 71 | 1013.8 |
| 20260507170932 | 57 | 208 | 6.0 | 12.0 | 0.00 | 0.50 | 0.43 | 69 | 1013.8 |
| 20260507170829 | 57 | 214 | 4.0 | 10.0 | 0.00 | 0.50 | 0.43 | 68 | 1013.9 |
| 20260507165830 | 58 | 192 | 4.0 | 7.0 | 0.00 | 0.50 | 0.43 | 68 | 1014.0 |
| 20260507165732 | 58 | 189 | 6.0 | 8.0 | 0.00 | 0.50 | 0.43 | 69 | 1014.0 |
| 20260507164732 | 58 | 198 | 2.0 | 6.0 | 0.00 | 0.50 | 0.43 | 69 | 1014.1 |
| 20260507161730 | 58 | 251 | 3.0 | 4.0 | 0.00 | 0.50 | 0.43 | 67 | 1014.2 |
| 20260507160731 | 56 | 202 | 0.0 | 0.0 | 0.00 | 0.50 | 0.43 | 69 | 1014.3 |
| 20260507155830 | 56 | 247 | 3.0 | 4.0 | 0.00 | 0.50 | 0.43 | 67 | 1014.6 |
| 20260507154831 | 55 | 270 | 0.0 | 0.0 | 0.00 | 0.50 | 0.43 | 68 | 1014.6 |
| 20260507153831 | 55 | 247 | 2.0 | 4.0 | 0.00 | 0.50 | 0.43 | 67 | 1014.7 |
| 20260507151830 | 54 | 244 | 3.0 | 5.0 | 0.00 | 0.50 | 0.43 | 74 | 1014.9 |
| 20260507150831 | 54 | 270 | 4.0 | 6.0 | 0.00 | 0.50 | 0.43 | 76 | 1015.0 |
| 20260507145831 | 53 | 315 | 2.0 | 3.0 | 0.00 | 0.50 | 0.43 | 78 | 1014.7 |
| 20260507145730 | 53 | 315 | 2.0 | 3.0 | 0.00 | 0.50 | 0.43 | 78 | 1014.7 |
| 20260507144829 | 52 | 259 | 3.0 | 4.0 | 0.00 | 0.50 | 0.43 | 81 | 1014.7 |
| 20260507143831 | 51 | 270 | 3.0 | 4.0 | 0.00 | 0.50 | 0.43 | 80 | 1014.8 |
| 20260507142831 | 51 | 302 | 5.0 | 6.0 | 0.00 | 0.50 | 0.43 | 82 | 1014.8 |
| 20260507141831 | 50 | 292 | 4.0 | 6.0 | 0.00 | 0.50 | 0.43 | 83 | 1015.0 |
| 20260507141729 | 50 | 271 | 5.0 | 6.0 | 0.00 | 0.50 | 0.43 | 84 | 1015.0 |
| 20260507140730 | 50 | 276 | 5.0 | 6.0 | 0.00 | 0.50 | 0.43 | 83 | 1014.9 |
| 20260507140631 | 50 | 292 | 6.0 | 7.0 | 0.00 | 0.50 | 0.43 | 82 | 1015.0 |
| 20260507140531 | 50 | 310 | 6.0 | 7.0 | 0.00 | 0.50 | 0.43 | 82 | 1015.0 |
| 20260507135531 | 50 | 282 | 6.0 | 9.0 | 0.00 | 0.50 | 0.43 | 83 | 1014.9 |
| 20260507135430 | 50 | 292 | 4.0 | 6.0 | 0.00 | 0.50 | 0.43 | 83 | 1014.9 |
| 20260507134432 | 49 | 315 | 8.0 | 8.0 | 0.00 | 0.50 | 0.43 | 82 | 1014.9 |
| 20260507133429 | 49 | 312 | 7.0 | 10.0 | 0.00 | 0.50 | 0.43 | 83 | 1015.0 |
| 20260507132430 | 49 | 316 | 5.0 | 8.0 | 0.01 | 0.50 | 0.43 | 83 | 1015.0 |
| 20260507132332 | 49 | 315 | 5.0 | 7.0 | 0.01 | 0.50 | 0.43 | 82 | 1015.0 |
| 20260507131430 | 49 | 318 | 6.0 | 8.0 | 0.02 | 0.50 | 0.43 | 86 | 1014.7 |
| 20260507130431 | 48 | 326 | 5.0 | 6.0 | 0.02 | 0.50 | 0.43 | 87 | 1014.7 |
| 20260507125430 | 48 | 315 | 5.0 | 5.0 | 0.02 | 0.50 | 0.43 | 88 | 1014.7 |
| 20260507124430 | 48 | 292 | 5.0 | 6.0 | 0.02 | 0.50 | 0.43 | 87 | 1015.0 |
| 20260507123431 | 48 | 292 | 4.0 | 6.0 | 0.03 | 0.50 | 0.43 | 88 | 1014.8 |
| 20260507122530 | 48 | 304 | 8.0 | 10.0 | 0.03 | 0.49 | 0.42 | 87 | 1015.0 |
| 20260507121531 | 48 | 315 | 6.0 | 8.0 | 0.03 | 0.48 | 0.41 | 87 | 1014.9 |
| 20260507115632 | 48 | 316 | 7.0 | 9.0 | 0.03 | 0.48 | 0.41 | 88 | 1014.7 |
| 20260507114728 | 48 | 313 | 8.0 | 10.0 | 0.03 | 0.48 | 0.41 | 87 | 1014.7 |
| 20260507114630 | 48 | 313 | 7.0 | 10.0 | 0.03 | 0.48 | 0.41 | 87 | 1014.6 |
| 20260507113632 | 48 | 316 | 9.0 | 11.0 | 0.04 | 0.48 | 0.41 | 87 | 1014.7 |
| 20260507112730 | 49 | 285 | 10.0 | 14.0 | 0.02 | 0.46 | 0.39 | 88 | 1015.3 |
| 20260507112630 | 49 | 289 | 11.0 | 14.0 | 0.02 | 0.46 | 0.39 | 88 | 1015.3 |
| 20260507111632 | 50 | 292 | 12.0 | 15.0 | 0.01 | 0.45 | 0.38 | 88 | 1015.1 |
| 20260507110531 | 50 | 315 | 11.0 | 14.0 | 0.01 | 0.45 | 0.38 | 87 | 1013.8 |
| 20260507105629 | 50 | 319 | 9.0 | 11.0 | 0.03 | 0.45 | 0.38 | 89 | 1013.7 |
| 20260507104632 | 50 | 317 | 11.0 | 15.0 | 0.04 | 0.45 | 0.37 | 88 | 1013.7 |
| 20260507102731 | 52 | 313 | 13.0 | 16.0 | 0.04 | 0.44 | 0.37 | 89 | 1013.9 |
| 20260507102629 | 52 | 306 | 10.0 | 14.0 | 0.05 | 0.44 | 0.37 | 90 | 1013.8 |
| 20260507101631 | 52 | 314 | 12.0 | 15.0 | 0.07 | 0.44 | 0.37 | 90 | 1013.9 |
| 20260507100631 | 52 | 324 | 11.0 | 14.0 | 0.08 | 0.44 | 0.37 | 89 | 1013.3 |
| 20260507095629 | 53 | 318 | 14.0 | 19.0 | 0.07 | 0.42 | 0.35 | 90 | 1013.3 |
| 20260507095529 | 53 | 317 | 12.0 | 18.0 | 0.07 | 0.42 | 0.35 | 91 | 1013.3 |
| 20260507094532 | 53 | 316 | 7.0 | 9.0 | 0.08 | 0.41 | 0.34 | 90 | 1013.5 |
| 20260507094432 | 53 | 315 | 8.0 | 12.0 | 0.08 | 0.41 | 0.34 | 90 | 1013.4 |
| 20260507092529 | 54 | 316 | 10.0 | 13.0 | 0.16 | 0.39 | 0.32 | 92 | 1013.4 |
| 20260507090531 | 54 | 292 | 6.0 | 7.0 | 0.28 | 0.36 | 0.28 | 95 | 1013.3 |
| 20260507085531 | 54 | 270 | 1.0 | 2.0 | 0.27 | 0.35 | 0.28 | 95 | 1013.4 |
| 20260507084630 | 53 | 251 | 4.0 | 5.0 | 0.25 | 0.33 | 0.26 | 95 | 1013.3 |
| 20260507083631 | 53 | 180 | 3.0 | 4.0 | 0.22 | 0.30 | 0.23 | 94 | 1013.5 |
| 20260507083529 | 53 | 180 | 3.0 | 5.0 | 0.22 | 0.30 | 0.22 | 94 | 1013.4 |
| 20260507082530 | 53 | 270 | 6.0 | 9.0 | 0.15 | 0.23 | 0.15 | 95 | 1013.1 |
| 20260507082430 | 52 | 269 | 6.0 | 9.0 | 0.14 | 0.22 | 0.14 | 94 | 1013.2 |
| 20260507081430 | 52 | 261 | 6.0 | 9.0 | 0.06 | 0.14 | 0.06 | 95 | 1013.3 |
| 20260507081331 | 52 | 269 | 6.0 | 8.0 | 0.05 | 0.13 | 0.04 | 94 | 1013.3 |
| 20260507080331 | 52 | 217 | 1.0 | 4.0 | 0.00 | 0.08 | 0.01 | 94 | 1012.4 |
| 20260507075429 | 52 | 180 | 2.0 | 4.0 | 0.00 | 0.08 | 0.01 | 95 | 1012.4 |
| 20260507074429 | 53 | 180 | 3.0 | 5.0 | 0.00 | 0.08 | 0.01 | 95 | 1012.5 |
| 20260507074332 | 53 | 180 | 3.0 | 4.0 | 0.00 | 0.08 | 0.01 | 95 | 1012.6 |
| 20260507073330 | 52 | 180 | 3.0 | 5.0 | 0.00 | 0.08 | 0.01 | 95 | 1012.4 |
| 20260507073232 | 52 | 178 | 3.0 | 6.0 | 0.00 | 0.08 | 0.01 | 95 | 1012.4 |
| 20260507072230 | 52 | 179 | 6.0 | 9.0 | 0.00 | 0.08 | 0.01 | 94 | 1012.7 |
| 20260507071231 | 52 | 175 | 3.0 | 7.0 | 0.00 | 0.08 | 0.01 | 95 | 1012.8 |
| 20260507070231 | 53 | 185 | 4.0 | 7.0 | 0.00 | 0.08 | 0.01 | 94 | 1012.9 |
| 20260507065229 | 53 | 180 | 2.0 | 6.0 | 0.00 | 0.08 | 0.01 | 94 | 1013.0 |
| 20260507065130 | 53 | 180 | 3.0 | 6.0 | 0.00 | 0.08 | 0.01 | 94 | 1013.0 |
| 20260507064130 | 53 | 180 | 3.0 | 4.0 | 0.00 | 0.08 | 0.01 | 95 | 1012.8 |
| 20260507064030 | 53 | 180 | 4.0 | 7.0 | 0.00 | 0.08 | 0.01 | 95 | 1012.8 |
| 20260507063931 | 53 | 180 | 3.0 | 5.0 | 0.00 | 0.08 | 0.01 | 95 | 1012.8 |
| 20260507063030 | 53 | 186 | 3.0 | 5.0 | 0.00 | 0.08 | 0.01 | 94 | 1012.8 |
| 20260507062129 | 53 | 180 | 2.0 | 5.0 | 0.01 | 0.08 | 0.01 | 95 | 1013.0 |
| 20260507062030 | 53 | 180 | 1.0 | 6.0 | 0.01 | 0.08 | 0.01 | 95 | 1013.1 |
| 20260507061030 | 53 | 180 | 3.0 | 4.0 | 0.01 | 0.08 | 0.01 | 94 | 1013.3 |
| 20260507060128 | 53 | 210 | 2.0 | 6.0 | 0.01 | 0.08 | 0.01 | 94 | 1013.4 |
| 20260507054129 | 53 | 181 | 4.0 | 9.0 | 0.01 | 0.08 | 0.01 | 95 | 1013.8 |
| 20260507052028 | 53 | 205 | 4.0 | 9.0 | 0.00 | 0.07 | 0.00 | 94 | 1014.0 |
| 20260507051031 | 53 | 202 | 5.0 | 10.0 | 0.00 | 0.07 | 0.00 | 95 | 1014.1 |
| 20260507050032 | 53 | 212 | 5.0 | 8.0 | 0.00 | 0.07 | 0.00 | 95 | 1014.4 |
| 20260507045128 | 53 | 228 | 2.0 | 5.0 | 0.00 | 0.07 | 0.00 | 94 | 1014.3 |
| 20260507045028 | 53 | 202 | 5.0 | 11.0 | 0.00 | 0.07 | 0.00 | 95 | 1014.2 |
| 20260507044030 | 53 | 205 | 4.0 | 8.0 | 0.00 | 0.07 | 0.00 | 93 | 1014.3 |
| 20260507043930 | 53 | 214 | 4.0 | 9.0 | 0.00 | 0.07 | 0.00 | 93 | 1014.2 |
| 20260507043831 | 53 | 227 | 2.0 | 6.0 | 0.00 | 0.07 | 0.00 | 94 | 1014.1 |
| 20260507042930 | 53 | 226 | 4.0 | 8.0 | 0.00 | 0.07 | 0.00 | 93 | 1014.4 |
| 20260507042830 | 53 | 200 | 3.0 | 7.0 | 0.00 | 0.07 | 0.00 | 94 | 1014.4 |
| 20260507041929 | 53 | 196 | 3.0 | 8.0 | 0.00 | 0.07 | 0.00 | 94 | 1014.3 |
| 20260507040027 | 53 | 210 | 4.0 | 14.0 | 0.00 | 0.07 | 0.00 | 93 | 1014.7 |
| 20260507035020 | 53 | 214 | 4.0 | 8.0 | 0.00 | 0.07 | 0.07 | 94 | 1014.4 |
| 20260507034023 | 53 | 234 | 6.0 | 11.0 | 0.00 | 0.07 | 0.07 | 94 | 1014.7 |
| 20260507033924 | 53 | 209 | 4.0 | 11.0 | 0.00 | 0.07 | 0.07 | 94 | 1014.7 |
| 20260507032922 | 54 | 211 | 6.0 | 14.0 | 0.00 | 0.07 | 0.07 | 94 | 1014.8 |
| 20260507031923 | 54 | 200 | 6.0 | 11.0 | 0.00 | 0.07 | 0.07 | 93 | 1014.4 |
| 20260507031823 | 54 | 212 | 3.0 | 11.0 | 0.00 | 0.07 | 0.07 | 94 | 1014.3 |
| 20260507030822 | 54 | 184 | 4.0 | 9.0 | 0.00 | 0.07 | 0.07 | 94 | 1014.5 |
| 20260507025921 | 54 | 215 | 3.0 | 7.0 | 0.00 | 0.07 | 0.07 | 94 | 1014.4 |
| 20260507023923 | 54 | 188 | 6.0 | 11.0 | 0.00 | 0.07 | 0.07 | 92 | 1014.6 |
| 20260507023820 | 54 | 186 | 5.0 | 9.0 | 0.00 | 0.07 | 0.07 | 92 | 1014.6 |
| 20260507022824 | 54 | 196 | 5.0 | 8.0 | 0.00 | 0.07 | 0.07 | 92 | 1014.9 |
| 20260507021920 | 54 | 190 | 5.0 | 11.0 | 0.00 | 0.07 | 0.07 | 93 | 1014.7 |
| 20260507020921 | 54 | 188 | 5.0 | 9.0 | 0.00 | 0.07 | 0.07 | 93 | 1015.0 |
| 20260507020823 | 54 | 202 | 4.0 | 8.0 | 0.00 | 0.07 | 0.07 | 92 | 1015.1 |
| 20260507015822 | 54 | 221 | 4.0 | 10.0 | 0.00 | 0.07 | 0.07 | 93 | 1015.2 |
| 20260507014920 | 54 | 215 | 5.0 | 12.0 | 0.00 | 0.07 | 0.07 | 93 | 1015.2 |
| 20260507014822 | 54 | 205 | 3.0 | 7.0 | 0.00 | 0.07 | 0.07 | 93 | 1015.2 |
| 20260507013820 | 55 | 223 | 6.0 | 11.0 | 0.00 | 0.07 | 0.07 | 93 | 1015.5 |
| 20260507012821 | 55 | 229 | 5.0 | 9.0 | 0.00 | 0.07 | 0.07 | 92 | 1015.6 |
| 20260507012723 | 55 | 236 | 4.0 | 9.0 | 0.00 | 0.07 | 0.07 | 93 | 1015.6 |
| 20260507011821 | 55 | 206 | 5.0 | 11.0 | 0.00 | 0.07 | 0.07 | 92 | 1015.5 |
| 20260507005920 | 56 | 218 | 7.0 | 13.0 | 0.00 | 0.07 | 0.07 | 93 | 1015.4 |
| 20260507004921 | 56 | 216 | 7.0 | 11.0 | 0.01 | 0.07 | 0.07 | 93 | 1015.3 |
| 20260507004821 | 56 | 213 | 6.0 | 10.0 | 0.01 | 0.07 | 0.07 | 93 | 1015.4 |
| 20260507003824 | 56 | 195 | 5.0 | 14.0 | 0.01 | 0.07 | 0.07 | 93 | 1015.3 |
| 20260507002823 | 56 | 190 | 7.0 | 10.0 | 0.03 | 0.07 | 0.07 | 93 | 1015.1 |
| 20260507002724 | 56 | 186 | 3.0 | 9.0 | 0.03 | 0.07 | 0.07 | 93 | 1015.1 |
| 20260507001820 | 56 | 194 | 7.0 | 14.0 | 0.04 | 0.07 | 0.07 | 93 | 1015.3 |
| 20260507001721 | 56 | 175 | 9.0 | 17.0 | 0.04 | 0.07 | 0.07 | 93 | 1015.3 |
| 20260507000820 | 56 | 203 | 6.0 | 17.0 | 0.05 | 0.07 | 0.07 | 93 | 1015.2 |
| 20260507000722 | 56 | 185 | 10.0 | 14.0 | 0.05 | 0.07 | 0.07 | 93 | 1015.2 |
| 20260506234721 | 56 | 186 | 9.0 | 19.0 | 0.05 | 0.06 | 0.06 | 93 | 1015.0 |
| 20260506234620 | 56 | 182 | 10.0 | 18.0 | 0.05 | 0.06 | 0.06 | 93 | 1015.0 |
| 20260506232621 | 56 | 173 | 11.0 | 20.0 | 0.04 | 0.04 | 0.04 | 92 | 1014.8 |
| 20260506232522 | 56 | 175 | 10.0 | 18.0 | 0.04 | 0.04 | 0.04 | 92 | 1014.8 |
| 20260506231523 | 56 | 174 | 11.0 | 18.0 | 0.03 | 0.03 | 0.03 | 91 | 1015.1 |
| 20260506231421 | 56 | 166 | 10.0 | 17.0 | 0.03 | 0.03 | 0.03 | 90 | 1015.2 |
| 20260506230520 | 56 | 166 | 10.0 | 17.0 | 0.02 | 0.02 | 0.02 | 91 | 1015.4 |
| 20260506230321 | 56 | 173 | 11.0 | 18.0 | 0.02 | 0.02 | 0.02 | 90 | 1015.3 |
| 20260506225321 | 56 | 176 | 9.0 | 15.0 | 0.01 | 0.01 | 0.01 | 89 | 1015.4 |
| 20260506224322 | 56 | 171 | 10.0 | 15.0 | 0.00 | 0.00 | 0.00 | 88 | 1015.6 |
| 20260506223421 | 57 | 185 | 11.0 | 18.0 | 0.00 | 0.00 | 0.00 | 86 | 1015.6 |
| 20260506223322 | 57 | 193 | 6.0 | 11.0 | 0.00 | 0.00 | 0.00 | 86 | 1015.6 |
| 20260506222322 | 57 | 196 | 10.0 | 15.0 | 0.00 | 0.00 | 0.00 | 84 | 1015.8 |
| 20260506222223 | 57 | 188 | 13.0 | 24.0 | 0.00 | 0.00 | 0.00 | 84 | 1015.7 |
| 20260506220223 | 58 | 192 | 11.0 | 19.0 | 0.00 | 0.00 | 0.00 | 81 | 1015.4 |
| 20260506215320 | 59 | 179 | 12.0 | 17.0 | 0.00 | 0.00 | 0.00 | 81 | 1015.5 |
| 20260506215223 | 59 | 176 | 8.0 | 16.0 | 0.00 | 0.00 | 0.00 | 81 | 1015.5 |
| 20260506214221 | 58 | 175 | 8.0 | 16.0 | 0.00 | 0.00 | 0.00 | 81 | 1015.6 |
| 20260506214120 | 58 | 171 | 10.0 | 15.0 | 0.00 | 0.00 | 0.00 | 81 | 1015.6 |
| 20260506214020 | 58 | 171 | 10.0 | 20.0 | 0.00 | 0.00 | 0.00 | 81 | 1015.6 |
| 20260506213022 | 58 | 177 | 12.0 | 21.0 | 0.00 | 0.00 | 0.00 | 81 | 1015.7 |
| 20260506212922 | 58 | 168 | 10.0 | 21.0 | 0.00 | 0.00 | 0.00 | 81 | 1015.7 |
| 20260506211922 | 59 | 184 | 11.0 | 17.0 | 0.00 | 0.00 | 0.00 | 79 | 1016.1 |
| 20260506211820 | 59 | 167 | 8.0 | 18.0 | 0.00 | 0.00 | 0.00 | 79 | 1016.1 |
| 20260506211724 | 59 | 177 | 10.0 | 18.0 | 0.00 | 0.00 | 0.00 | 80 | 1016.0 |
| 20260506210723 | 59 | 188 | 10.0 | 16.0 | 0.00 | 0.00 | 0.00 | 80 | 1015.9 |
| 20260506205821 | 59 | 175 | 9.0 | 17.0 | 0.00 | 0.00 | 0.00 | 79 | 1016.0 |
| 20260506204824 | 59 | 183 | 12.0 | 20.0 | 0.00 | 0.00 | 0.00 | 79 | 1016.0 |
| 20260506203922 | 59 | 175 | 11.0 | 21.0 | 0.00 | 0.00 | 0.00 | 80 | 1016.0 |
| 20260506203821 | 59 | 178 | 7.0 | 16.0 | 0.00 | 0.00 | 0.00 | 80 | 1016.1 |
| 20260506202821 | 59 | 180 | 11.0 | 17.0 | 0.00 | 0.00 | 0.00 | 78 | 1016.4 |
| 20260506200823 | 59 | 177 | 8.0 | 15.0 | 0.00 | 0.00 | 0.00 | 79 | 1016.4 |
| 20260506195920 | 59 | 190 | 7.0 | 14.0 | 0.00 | 0.00 | 0.00 | 78 | 1016.5 |
| 20260506194921 | 59 | 173 | 11.0 | 18.0 | 0.00 | 0.00 | 0.00 | 78 | 1016.6 |
| 20260506193924 | 59 | 189 | 9.0 | 20.0 | 0.00 | 0.00 | 0.00 | 78 | 1016.9 |
| 20260506192920 | 59 | 168 | 10.0 | 21.0 | 0.00 | 0.00 | 0.00 | 78 | 1016.9 |
| 20260506191823 | 59 | 176 | 11.0 | 17.0 | 0.00 | 0.00 | 0.00 | 77 | 1016.9 |
| 20260506190820 | 60 | 173 | 13.0 | 20.0 | 0.00 | 0.00 | 0.00 | 76 | 1017.0 |
| 20260506185823 | 59 | 182 | 8.0 | 15.0 | 0.00 | 0.00 | 0.00 | 77 | 1016.9 |
| 20260506185723 | 59 | 182 | 8.0 | 14.0 | 0.00 | 0.00 | 0.00 | 77 | 1017.0 |
| 20260506183823 | 59 | 171 | 13.0 | 20.0 | 0.00 | 0.00 | 0.00 | 77 | 1017.3 |
| 20260506182821 | 59 | 169 | 9.0 | 17.0 | 0.00 | 0.00 | 0.00 | 76 | 1017.5 |
| 20260506182721 | 60 | 187 | 13.0 | 23.0 | 0.00 | 0.00 | 0.00 | 76 | 1017.5 |
| 20260506182622 | 60 | 187 | 10.0 | 18.0 | 0.00 | 0.00 | 0.00 | 76 | 1017.5 |
| 20260506181620 | 60 | 178 | 10.0 | 21.0 | 0.00 | 0.00 | 0.00 | 74 | 1017.9 |
| 20260506181523 | 60 | 180 | 13.0 | 21.0 | 0.00 | 0.00 | 0.00 | 75 | 1017.8 |
| 20260506180521 | 61 | 182 | 9.0 | 18.0 | 0.00 | 0.00 | 0.00 | 74 | 1017.9 |
| 20260506175522 | 62 | 195 | 7.0 | 11.0 | 0.00 | 0.00 | 0.00 | 74 | 1018.2 |
| 20260506174522 | 62 | 178 | 12.0 | 20.0 | 0.00 | 0.00 | 0.00 | 73 | 1018.3 |
| 20260506174422 | 62 | 192 | 12.0 | 22.0 | 0.00 | 0.00 | 0.00 | 72 | 1018.3 |
| 20260506173422 | 62 | 176 | 12.0 | 23.0 | 0.00 | 0.00 | 0.00 | 74 | 1018.1 |